KHVR

Details ICAO KHVR (HVR)
Name Havre City Co
Region United States
Timezone America/Denver (UTC-7.0)
Plans Departing 26
Arriving 4
Stats Elevation 2,590 ft / 789 m (AMSL)
Location 48.542768° -109.762405°
Runways 2
Magnetic Variation 11.684° E
Sunrise 2017-12-11 15:02:48 UTC / 2017-12-11 08:02:48 Local
Sunset 2017-12-11 23:25:00 UTC / 2017-12-11 16:25:00 Local
Advertisement - Login to hide

Runways

ID Width Length Bearing (true) Bearing (mag) Surface Threshold Offset Overrun Length
03 60 ft / 18 m 3,694 ft / 1,126 m 44.94° 33.26° Asphalt 0 ft / 0 m 0 ft / 0 m
07 100 ft / 30 m 5,189 ft / 1,582 m 90.05° 78.37° Asphalt 0 ft / 0 m 0 ft / 0 m
21 60 ft / 18 m 3,694 ft / 1,126 m 224.95° 213.27° Asphalt 0 ft / 0 m 0 ft / 0 m
25 100 ft / 30 m 5,189 ft / 1,582 m 270.06° 258.38° Asphalt 0 ft / 0 m 0 ft / 0 m

Map

Weather


0- 5 10 15 20 25 30 35+ Temperature / ° C

Clouds and Precipitation
Forecast for 2017-12-12 00:00 UTC. Updated 2 hours ago

Ground ~20,000 ft ~40,000 ft Winds

METAR

KHVR 120053Z AUTO 19006KT 10SM CLR M03/M08 A3034 RMK AO2 SLP311 T10331078

TAF

TAF KHVR 112320Z 1200/1224 23007KT P6SM SCT200 FM121200 23011G19KT P6SM FEW250 FM121700 24019G28KT P6SM SCT250

Frequencies

Recorded 135.22 MHz ASOS
Unicom 122.80 MHz CTAF/UNICOM
Warning: Do not use this data for real-world aviation or navigation. No guarantee of current accuracy is given.